Time;durP1;ratioP1;P1;durP2;ratioP2;P2;SDS_P1;SDS_P2;PMS_P1;PMS_P2;Temp;Humidity;BMP_temperature;BMP_pressure;BME280_temperature;BME280_humidity;BME280_pressure;Samples;Min_cycle;Max_cycle;Signal;HPM_P1;HPM_P2
2023/05/14 00:01:33;;;;;;;;;;;12.80;86.40;;;;;;4954813;29;19958;-96
2023/05/14 00:04:02;;;;;;;;;;;12.80;86.30;;;;;;4972462;29;19914;-96
2023/05/14 00:06:30;;;;;;;;;;;12.80;86.40;;;;;;4956060;29;19944;-96
2023/05/14 00:08:56;;;;;;;;;;;12.80;86.40;;;;;;4956007;29;19918;-96
2023/05/14 00:11:22;;;;;;;;;;;12.80;86.30;;;;;;4954919;29;19911;-96
2023/05/14 00:13:51;;;;;;;;;;;12.80;86.20;;;;;;4955116;29;19911;-96
2023/05/14 00:16:17;;;;;;;;;;;12.80;86.20;;;;;;4955810;29;19953;-96
2023/05/14 00:18:43;;;;;;;;;;;12.80;86.20;;;;;;4955689;29;19910;-96
2023/05/14 00:21:12;;;;;;;;;;;12.80;86.20;;;;;;4955717;29;19911;-96
2023/05/14 00:23:40;;;;;;;;;;;12.90;86.00;;;;;;4955881;29;19983;-96
2023/05/14 00:26:06;;;;;;;;;;;12.90;85.90;;;;;;4955868;29;19914;-96
2023/05/14 00:28:32;;;;;;;;;;;12.90;85.80;;;;;;4955839;29;19977;-96
2023/05/14 00:31:00;;;;;;;;;;;12.90;85.60;;;;;;4954829;29;19915;-96
2023/05/14 00:33:26;;;;;;;;;;;12.90;85.90;;;;;;4954589;29;20525;-96
2023/05/14 00:35:52;;;;;;;;;;;13.00;85.80;;;;;;4953952;29;19910;-96
2023/05/14 00:38:18;;;;;;;;;;;13.00;85.60;;;;;;4955124;29;19934;-96
2023/05/14 00:40:51;;;;;;;;;;;13.10;85.50;;;;;;4954739;29;19917;-95
2023/05/14 00:43:18;;;;;;;;;;;13.10;85.20;;;;;;4972029;28;19914;-96
2023/05/14 00:45:45;;;;;;;;;;;13.10;85.10;;;;;;4955355;29;19921;-96
2023/05/14 00:48:11;;;;;;;;;;;13.20;84.80;;;;;;4955898;29;19911;-96
2023/05/14 00:50:37;;;;;;;;;;;13.10;84.60;;;;;;4955517;29;19910;-96
2023/05/14 00:53:08;;;;;;;;;;;13.20;85.10;;;;;;4955582;29;19934;-96
2023/05/14 00:55:37;;;;;;;;;;;13.20;86.40;;;;;;4956193;29;19979;-96
2023/05/14 00:58:08;;;;;;;;;;;13.10;86.70;;;;;;4956222;29;19910;-96
2023/05/14 01:00:37;;;;;;;;;;;13.10;87.00;;;;;;4959534;29;19934;-96
2023/05/14 01:03:06;;;;;;;;;;;13.10;87.30;;;;;;4959089;29;19923;-96
2023/05/14 01:05:42;;;;;;;;;;;13.00;87.20;;;;;;4958655;29;19930;-96
2023/05/14 01:08:31;;;;;;;;;;;12.90;87.10;;;;;;4959168;29;19911;-96
2023/05/14 01:11:09;;;;;;;;;;;12.90;87.40;;;;;;4959720;29;19917;-96
2023/05/14 01:13:44;;;;;;;;;;;13.00;87.30;;;;;;4959941;29;19922;-96
2023/05/14 01:16:12;;;;;;;;;;;13.00;86.70;;;;;;4960289;29;19918;-96
2023/05/14 01:18:39;;;;;;;;;;;13.10;86.30;;;;;;4959236;29;19935;-96
2023/05/14 01:21:17;;;;;;;;;;;13.10;86.10;;;;;;4959178;29;19922;-96
2023/05/14 01:23:43;;;;;;;;;;;13.10;85.90;;;;;;4976851;29;19910;-96
2023/05/14 01:26:09;;;;;;;;;;;13.10;85.50;;;;;;4958630;29;19939;-96
2023/05/14 01:28:36;;;;;;;;;;;13.00;85.30;;;;;;4958557;29;19915;-96
2023/05/14 01:31:26;;;;;;;;;;;13.00;85.50;;;;;;4958189;29;19994;-96
2023/05/14 01:33:53;;;;;;;;;;;12.90;85.60;;;;;;4957908;29;19911;-96
2023/05/14 01:36:19;;;;;;;;;;;12.90;85.80;;;;;;4957307;29;19911;-96
2023/05/14 01:38:46;;;;;;;;;;;12.80;86.20;;;;;;4956681;29;19919;-96
2023/05/14 01:41:13;;;;;;;;;;;12.80;86.00;;;;;;4956631;29;19974;-96
2023/05/14 01:43:39;;;;;;;;;;;12.80;86.00;;;;;;4956784;29;19918;-96
2023/05/14 01:46:05;;;;;;;;;;;12.80;86.00;;;;;;4956696;29;19915;-96
2023/05/14 01:48:32;;;;;;;;;;;12.80;86.00;;;;;;4957991;29;19997;-96
2023/05/14 01:50:58;;;;;;;;;;;12.90;85.80;;;;;;4957947;29;19957;-96
2023/05/14 01:53:33;;;;;;;;;;;12.90;85.70;;;;;;4957805;29;19917;-96
2023/05/14 01:56:00;;;;;;;;;;;12.90;85.80;;;;;;4975386;29;19920;-96
2023/05/14 01:58:26;;;;;;;;;;;13.10;85.80;;;;;;4957393;29;19921;-96
2023/05/14 02:00:52;;;;;;;;;;;13.10;85.50;;;;;;4957925;29;19895;-96
2023/05/14 02:03:18;;;;;;;;;;;13.10;85.70;;;;;;4954324;29;19923;-96
2023/05/14 02:05:44;;;;;;;;;;;13.10;85.70;;;;;;4954566;29;19915;-96
2023/05/14 02:08:13;;;;;;;;;;;13.20;86.20;;;;;;4954540;29;19918;-96
2023/05/14 02:10:39;;;;;;;;;;;13.30;86.10;;;;;;4953491;29;19911;-96
2023/05/14 02:13:05;;;;;;;;;;;13.30;85.50;;;;;;4955276;29;19942;-96
2023/05/14 02:15:31;;;;;;;;;;;13.30;84.80;;;;;;4954553;29;19910;-96
2023/05/14 02:17:57;;;;;;;;;;;13.30;84.40;;;;;;4954375;29;19911;-96
2023/05/14 02:20:23;;;;;;;;;;;13.30;84.20;;;;;;4956059;29;19910;-96
2023/05/14 02:22:49;;;;;;;;;;;13.30;84.00;;;;;;4954695;29;19962;-96
2023/05/14 02:25:15;;;;;;;;;;;13.40;84.30;;;;;;4954864;29;20291;-96
2023/05/14 02:27:41;;;;;;;;;;;13.40;85.40;;;;;;4955163;29;19917;-96
2023/05/14 02:30:08;;;;;;;;;;;13.40;86.60;;;;;;4955636;29;19911;-96
2023/05/14 02:32:34;;;;;;;;;;;13.30;87.00;;;;;;4954894;29;19911;-96
2023/05/14 02:35:00;;;;;;;;;;;13.30;87.40;;;;;;4954827;29;19962;-96
2023/05/14 02:37:29;;;;;;;;;;;13.30;87.60;;;;;;4954621;29;19915;-96
2023/05/14 02:39:55;;;;;;;;;;;13.20;87.60;;;;;;4953887;29;19911;-96
2023/05/14 02:42:21;;;;;;;;;;;13.20;87.40;;;;;;4954254;29;19921;-96
2023/05/14 02:44:47;;;;;;;;;;;13.10;87.40;;;;;;4953753;29;19946;-96
2023/05/14 02:47:19;;;;;;;;;;;13.10;87.70;;;;;;4953768;29;19974;-96
2023/05/14 02:49:47;;;;;;;;;;;13.10;87.80;;;;;;4954367;29;19917;-96
2023/05/14 02:52:13;;;;;;;;;;;13.20;87.80;;;;;;4954001;29;19911;-96
2023/05/14 02:54:39;;;;;;;;;;;13.20;87.10;;;;;;4954504;29;20005;-96
2023/05/14 02:57:05;;;;;;;;;;;13.30;86.50;;;;;;4954874;29;19914;-96
2023/05/14 02:59:35;;;;;;;;;;;13.30;86.50;;;;;;4955744;29;19911;-96
2023/05/14 03:02:01;;;;;;;;;;;13.30;86.80;;;;;;4954099;29;19923;-96
2023/05/14 03:04:27;;;;;;;;;;;13.10;88.00;;;;;;4954140;29;19911;-96
2023/05/14 03:06:53;;;;;;;;;;;13.10;88.30;;;;;;4954146;29;19910;-96
2023/05/14 03:09:19;;;;;;;;;;;13.10;88.20;;;;;;4954071;29;19962;-96
2023/05/14 03:11:55;;;;;;;;;;;13.10;88.30;;;;;;4954632;29;19915;-96
2023/05/14 03:14:24;;;;;;;;;;;13.00;88.30;;;;;;4953938;29;19915;-96
2023/05/14 03:16:50;;;;;;;;;;;13.00;88.20;;;;;;4954078;29;19974;-96
2023/05/14 03:19:19;;;;;;;;;;;13.00;88.50;;;;;;4953074;29;19915;-96
2023/05/14 03:21:48;;;;;;;;;;;13.10;87.80;;;;;;4953088;29;19910;-96
2023/05/14 03:24:14;;;;;;;;;;;13.10;87.50;;;;;;4954767;29;19911;-96
2023/05/14 03:26:40;;;;;;;;;;;13.10;87.40;;;;;;4953652;29;19974;-96
2023/05/14 03:29:09;;;;;;;;;;;13.10;87.50;;;;;;4954546;29;19938;-96
2023/05/14 03:31:35;;;;;;;;;;;13.20;87.60;;;;;;4954044;29;19911;-96
2023/05/14 03:34:02;;;;;;;;;;;13.00;88.40;;;;;;4954043;29;19934;-96
2023/05/14 03:36:35;;;;;;;;;;;13.00;88.90;;;;;;4953753;29;19982;-96
2023/05/14 03:39:06;;;;;;;;;;;13.10;88.90;;;;;;4953506;29;19911;-96
2023/05/14 03:41:32;;;;;;;;;;;13.00;88.80;;;;;;4953602;29;19910;-96
2023/05/14 03:43:58;;;;;;;;;;;13.00;88.70;;;;;;4953674;29;19926;-95
2023/05/14 03:46:24;;;;;;;;;;;13.10;89.10;;;;;;4953128;29;19899;-96
2023/05/14 03:48:50;;;;;;;;;;;13.10;89.00;;;;;;4952662;29;19934;-96
2023/05/14 03:51:19;;;;;;;;;;;13.10;88.60;;;;;;4952708;29;19942;-96
2023/05/14 03:53:45;;;;;;;;;;;13.10;89.00;;;;;;4953321;29;19918;-96
2023/05/14 03:56:14;;;;;;;;;;;13.20;88.70;;;;;;4953161;29;19979;-96
2023/05/14 03:58:41;;;;;;;;;;;13.10;87.90;;;;;;4953860;29;19911;-96
2023/05/14 04:01:07;;;;;;;;;;;13.10;87.80;;;;;;4952762;29;19911;-96
2023/05/14 04:03:33;;;;;;;;;;;13.10;88.10;;;;;;4952744;29;19926;-96
2023/05/14 04:05:59;;;;;;;;;;;13.10;88.70;;;;;;4952734;29;19914;-96
2023/05/14 04:08:28;;;;;;;;;;;13.00;88.80;;;;;;4952752;29;19915;-96
2023/05/14 04:10:54;;;;;;;;;;;13.00;88.80;;;;;;4952459;29;19911;-96
2023/05/14 04:13:23;;;;;;;;;;;13.00;89.10;;;;;;4952303;29;19918;-96
2023/05/14 04:15:52;;;;;;;;;;;13.00;88.80;;;;;;4952284;29;19962;-96
2023/05/14 04:18:18;;;;;;;;;;;13.00;88.90;;;;;;4952068;29;19911;-96
2023/05/14 04:20:44;;;;;;;;;;;13.00;88.90;;;;;;4952028;29;19911;-96
2023/05/14 04:23:12;;;;;;;;;;;13.10;88.30;;;;;;4952164;29;19911;-96
2023/05/14 04:25:45;;;;;;;;;;;13.00;88.40;;;;;;4952412;29;19921;-96
2023/05/14 04:28:11;;;;;;;;;;;13.00;88.80;;;;;;4952096;29;19910;-96
2023/05/14 04:30:37;;;;;;;;;;;13.10;88.90;;;;;;4951837;29;19917;-96
2023/05/14 04:33:03;;;;;;;;;;;13.10;88.80;;;;;;4953332;29;19911;-96
2023/05/14 04:35:29;;;;;;;;;;;13.20;88.60;;;;;;4956382;29;19962;-96
2023/05/14 04:37:55;;;;;;;;;;;13.20;88.40;;;;;;4956164;29;20112;-96
2023/05/14 04:40:21;;;;;;;;;;;13.30;88.00;;;;;;4956509;29;19915;-96
2023/05/14 04:42:47;;;;;;;;;;;13.30;87.80;;;;;;4956393;29;19940;-96
2023/05/14 04:45:13;;;;;;;;;;;13.30;88.10;;;;;;4956440;29;19957;-96
2023/05/14 04:47:40;;;;;;;;;;;13.30;88.40;;;;;;4975600;23;19945;-96
2023/05/14 04:50:12;;;;;;;;;;;13.30;88.20;;;;;;5011785;23;19936;-96
2023/05/14 04:52:38;;;;;;;;;;;13.30;88.10;;;;;;4982905;28;19942;-96
2023/05/14 04:55:04;;;;;;;;;;;13.30;88.10;;;;;;4983393;28;19898;-96
2023/05/14 05:00:08;;;;;;;;;;;13.40;88.10;;;;;;5127081;23;19933;-96
2023/05/14 05:02:42;;;;;;;;;;;13.40;88.10;;;;;;5261375;23;19910;-96
2023/05/14 05:05:08;;;;;;;;;;;13.40;88.30;;;;;;4980007;28;19918;-96
2023/05/14 05:07:37;;;;;;;;;;;13.40;88.40;;;;;;4979242;29;19941;-96
2023/05/14 05:10:04;;;;;;;;;;;13.50;88.20;;;;;;4980557;29;19933;-96
2023/05/14 05:12:34;;;;;;;;;;;13.50;88.10;;;;;;4980213;29;19975;-96
2023/05/14 05:15:03;;;;;;;;;;;13.60;87.90;;;;;;4979708;28;19911;-96
2023/05/14 05:17:31;;;;;;;;;;;13.70;87.60;;;;;;4979772;29;19911;-96
2023/05/14 05:20:01;;;;;;;;;;;13.80;87.50;;;;;;4979147;28;19910;-96
2023/05/14 05:22:30;;;;;;;;;;;13.80;86.90;;;;;;4977732;29;19911;-96
2023/05/14 05:24:57;;;;;;;;;;;13.90;87.50;;;;;;4977123;28;19926;-96
2023/05/14 05:27:32;;;;;;;;;;;14.00;86.20;;;;;;4977249;28;19930;-96
2023/05/14 05:29:58;;;;;;;;;;;14.10;84.10;;;;;;4977689;29;19914;-96
2023/05/14 05:32:27;;;;;;;;;;;14.20;83.70;;;;;;4977199;29;19910;-96
2023/05/14 05:34:53;;;;;;;;;;;14.30;83.10;;;;;;4977295;28;19915;-96
2023/05/14 05:37:20;;;;;;;;;;;14.30;83.00;;;;;;4977192;29;19918;-96
2023/05/14 05:39:47;;;;;;;;;;;14.30;82.80;;;;;;4977140;28;19911;-96
2023/05/14 05:42:13;;;;;;;;;;;14.40;82.70;;;;;;4977831;29;19970;-96
2023/05/14 05:44:40;;;;;;;;;;;14.40;82.70;;;;;;4964581;28;19922;-96
2023/05/14 05:47:12;;;;;;;;;;;14.50;82.50;;;;;;4958274;29;20382;-96
2023/05/14 05:49:49;;;;;;;;;;;;;;;;;;;;;
2023/05/14 05:52:19;;;;;;;;;;;14.50;81.60;;;;;;4959027;29;19953;-96
2023/05/14 05:54:48;;;;;;;;;;;14.60;81.10;;;;;;4957348;29;19899;-96
2023/05/14 05:57:21;;;;;;;;;;;14.60;81.20;;;;;;4957810;29;19918;-96
2023/05/14 05:59:47;;;;;;;;;;;14.70;80.80;;;;;;4957257;29;19918;-96
2023/05/14 06:02:16;;;;;;;;;;;14.70;80.70;;;;;;4957021;29;19923;-96
2023/05/14 06:04:45;;;;;;;;;;;14.70;80.70;;;;;;4956666;29;19921;-96
2023/05/14 06:07:11;;;;;;;;;;;14.80;80.30;;;;;;4957244;29;19917;-96
2023/05/14 06:09:39;;;;;;;;;;;14.70;80.30;;;;;;4956902;29;20009;-96
2023/05/14 06:12:05;;;;;;;;;;;14.80;79.50;;;;;;4956624;29;19983;-96
2023/05/14 06:14:35;;;;;;;;;;;14.80;79.50;;;;;;4956485;29;19918;-96
2023/05/14 06:17:01;;;;;;;;;;;14.80;79.60;;;;;;4955711;29;19911;-96
2023/05/14 06:22:34;;;;;;;;;;;14.90;80.00;;;;;;4943561;29;19945;-96
2023/05/14 06:25:03;;;;;;;;;;;14.90;79.90;;;;;;4956097;29;19914;-96
2023/05/14 06:27:33;;;;;;;;;;;15.00;79.90;;;;;;4956344;29;19961;-96
2023/05/14 06:30:04;;;;;;;;;;;15.00;79.80;;;;;;4956144;29;19934;-96
2023/05/14 06:32:30;;;;;;;;;;;15.00;79.60;;;;;;4955980;29;19911;-96
2023/05/14 06:34:56;;;;;;;;;;;15.00;79.40;;;;;;4956816;29;19994;-96
2023/05/14 06:37:22;;;;;;;;;;;15.00;79.70;;;;;;4955619;29;19938;-96
2023/05/14 06:39:51;;;;;;;;;;;15.00;80.00;;;;;;4955809;29;19918;-96
2023/05/14 06:42:17;;;;;;;;;;;15.00;80.50;;;;;;4955782;29;20010;-96
2023/05/14 06:44:49;;;;;;;;;;;15.00;80.70;;;;;;4955813;29;19942;-96
2023/05/14 06:47:18;;;;;;;;;;;15.00;81.20;;;;;;4956025;29;19895;-96
2023/05/14 06:49:47;;;;;;;;;;;15.00;81.50;;;;;;4955564;29;19911;-96
2023/05/14 06:52:13;;;;;;;;;;;15.00;81.40;;;;;;4955153;29;19939;-96
2023/05/14 06:54:39;;;;;;;;;;;15.10;81.10;;;;;;4954775;29;19919;-96
2023/05/14 06:57:08;;;;;;;;;;;15.00;81.20;;;;;;4954728;29;19911;-96
2023/05/14 06:59:41;;;;;;;;;;;15.00;81.50;;;;;;4954713;29;19910;-96
2023/05/14 07:02:07;;;;;;;;;;;15.00;81.60;;;;;;4955143;29;19923;-96
2023/05/14 07:04:33;;;;;;;;;;;15.00;81.80;;;;;;4956212;29;19915;-96
2023/05/14 07:06:59;;;;;;;;;;;15.00;82.30;;;;;;4955303;29;19911;-96
2023/05/14 07:09:31;;;;;;;;;;;15.00;82.10;;;;;;4954508;29;19918;-96
2023/05/14 07:11:58;;;;;;;;;;;14.90;82.60;;;;;;4954310;29;19911;-96
2023/05/14 07:14:34;;;;;;;;;;;14.90;82.70;;;;;;4955094;29;20010;-96
2023/05/14 07:17:03;;;;;;;;;;;14.90;83.10;;;;;;4954572;29;19911;-96
2023/05/14 07:19:34;;;;;;;;;;;14.90;83.60;;;;;;4954120;29;20005;-96
2023/05/14 07:22:01;;;;;;;;;;;14.90;83.60;;;;;;4954868;29;19911;-96
2023/05/14 07:24:37;;;;;;;;;;;14.80;84.10;;;;;;4954769;29;19911;-96
2023/05/14 07:27:07;;;;;;;;;;;14.80;84.50;;;;;;4954863;29;19927;-96
2023/05/14 07:29:34;;;;;;;;;;;14.80;84.70;;;;;;4955036;29;19922;-96
2023/05/14 07:32:06;;;;;;;;;;;14.90;84.70;;;;;;4956073;29;19918;-96
2023/05/14 07:34:32;;;;;;;;;;;14.90;84.60;;;;;;4953806;29;19933;-96
2023/05/14 07:36:57;;;;;;;;;;;14.80;85.20;;;;;;4954568;29;19954;-96
2023/05/14 07:39:23;;;;;;;;;;;14.80;85.50;;;;;;4953852;29;19978;-96
2023/05/14 07:41:53;;;;;;;;;;;14.80;86.30;;;;;;4952791;29;19918;-96
2023/05/14 07:44:22;;;;;;;;;;;14.80;88.00;;;;;;4953156;29;19918;-96
2023/05/14 07:46:48;;;;;;;;;;;14.70;88.30;;;;;;4953710;29;19915;-96
2023/05/14 07:49:14;;;;;;;;;;;14.70;87.70;;;;;;4953680;29;19946;-96
2023/05/14 07:51:43;;;;;;;;;;;14.70;88.00;;;;;;4954479;29;19911;-96
2023/05/14 07:54:10;;;;;;;;;;;14.80;87.90;;;;;;4954566;29;19917;-96
2023/05/14 07:56:36;;;;;;;;;;;14.80;87.90;;;;;;4954775;29;19911;-96
2023/05/14 07:59:06;;;;;;;;;;;14.80;87.70;;;;;;4954569;29;19992;-96
2023/05/14 08:01:34;;;;;;;;;;;14.80;87.80;;;;;;4955541;29;19978;-96
2023/05/14 08:04:00;;;;;;;;;;;14.80;87.30;;;;;;4956842;29;19995;-96
2023/05/14 08:06:29;;;;;;;;;;;14.80;87.30;;;;;;4957660;29;19914;-96
2023/05/14 08:08:55;;;;;;;;;;;14.70;87.00;;;;;;4956149;29;19934;-96
2023/05/14 08:11:21;;;;;;;;;;;14.60;87.40;;;;;;4957174;29;19914;-96
2023/05/14 08:13:50;;;;;;;;;;;14.60;87.70;;;;;;4957242;29;19934;-96
2023/05/14 08:16:18;;;;;;;;;;;14.60;88.10;;;;;;4957156;29;19911;-96
2023/05/14 08:18:45;;;;;;;;;;;14.60;88.40;;;;;;4958220;29;19953;-96
2023/05/14 08:21:11;;;;;;;;;;;14.60;88.70;;;;;;4959258;29;19911;-96
2023/05/14 08:23:38;;;;;;;;;;;14.70;89.20;;;;;;4957979;29;19957;-96
2023/05/14 08:26:07;;;;;;;;;;;14.70;89.00;;;;;;4958338;29;19914;-96
2023/05/14 08:28:33;;;;;;;;;;;14.80;89.20;;;;;;4957861;29;19910;-96
2023/05/14 08:31:02;;;;;;;;;;;14.80;89.10;;;;;;4957600;29;19911;-96
2023/05/14 08:33:32;;;;;;;;;;;14.70;88.90;;;;;;4958256;29;19917;-96
2023/05/14 08:35:59;;;;;;;;;;;14.80;89.00;;;;;;4958177;29;19894;-96
2023/05/14 08:38:25;;;;;;;;;;;14.80;89.10;;;;;;4958145;29;19934;-96
2023/05/14 08:40:55;;;;;;;;;;;14.80;89.20;;;;;;4974687;29;19915;-96
2023/05/14 08:43:25;;;;;;;;;;;14.70;89.10;;;;;;4957202;28;19910;-96
2023/05/14 08:45:57;;;;;;;;;;;14.70;88.60;;;;;;4974026;29;19914;-96
2023/05/14 08:48:28;;;;;;;;;;;14.70;87.50;;;;;;4956533;29;19922;-96
2023/05/14 08:51:01;;;;;;;;;;;14.70;87.60;;;;;;4957026;29;19911;-96
2023/05/14 08:53:37;;;;;;;;;;;14.70;87.90;;;;;;4956567;29;20009;-96
2023/05/14 08:56:04;;;;;;;;;;;14.80;88.20;;;;;;4957657;29;20375;-96
2023/05/14 08:58:30;;;;;;;;;;;14.80;88.30;;;;;;4957025;29;19910;-96
2023/05/14 09:01:28;;;;;;;;;;;14.80;87.90;;;;;;4957389;29;19917;-96
2023/05/14 09:04:10;;;;;;;;;;;14.70;87.80;;;;;;4952530;29;19928;-96
2023/05/14 09:06:46;;;;;;;;;;;14.70;88.10;;;;;;4957765;29;19945;-96
2023/05/14 09:09:25;;;;;;;;;;;14.70;88.40;;;;;;4956765;29;19973;-96
2023/05/14 09:11:52;;;;;;;;;;;14.70;88.10;;;;;;4957122;29;19918;-96
2023/05/14 13:02:53;;;;;;;;;;;17.30;72.70;;;;;;5199010;23;19978;-96
2023/05/14 13:05:20;;;;;;;;;;;17.40;71.90;;;;;;4963535;29;19906;-96
2023/05/14 13:07:46;;;;;;;;;;;17.50;71.50;;;;;;4963786;29;19911;-96
2023/05/14 13:10:17;;;;;;;;;;;17.70;71.30;;;;;;4962808;29;19911;-96
2023/05/14 13:12:51;;;;;;;;;;;17.70;68.20;;;;;;4963613;29;19894;-96
2023/05/14 13:15:21;;;;;;;;;;;17.70;68.60;;;;;;4963509;29;19910;-96
2023/05/14 13:17:52;;;;;;;;;;;17.80;68.60;;;;;;4964267;29;19910;-96
2023/05/14 13:20:22;;;;;;;;;;;17.90;70.30;;;;;;4979058;29;19910;-96
2023/05/14 13:22:52;;;;;;;;;;;18.00;69.90;;;;;;4964357;29;19895;-96
2023/05/14 13:25:18;;;;;;;;;;;18.10;68.40;;;;;;4964674;29;19914;-96
2023/05/14 13:27:46;;;;;;;;;;;18.30;66.70;;;;;;4964496;29;19911;-96
2023/05/14 13:30:13;;;;;;;;;;;18.30;66.80;;;;;;4963654;29;19974;-96
2023/05/14 13:32:46;;;;;;;;;;;18.40;67.20;;;;;;4957803;29;19954;-96
2023/05/14 13:35:13;;;;;;;;;;;18.40;66.70;;;;;;4943158;29;19914;-96
2023/05/14 13:37:41;;;;;;;;;;;18.20;67.50;;;;;;4960628;29;19911;-96
2023/05/14 13:40:08;;;;;;;;;;;18.30;68.10;;;;;;4944170;29;19918;-96
2023/05/14 13:42:35;;;;;;;;;;;18.30;66.90;;;;;;4943867;29;19935;-96
2023/05/14 13:45:15;;;;;;;;;;;18.40;66.40;;;;;;4961345;29;19899;-96
2023/05/14 13:47:42;;;;;;;;;;;18.50;65.40;;;;;;4961486;29;19911;-96
2023/05/14 13:50:14;;;;;;;;;;;18.50;66.20;;;;;;4961975;28;19902;-96
2023/05/14 13:52:53;;;;;;;;;;;18.60;65.80;;;;;;4943559;29;19945;-96
2023/05/14 13:55:21;;;;;;;;;;;18.80;64.60;;;;;;4945986;29;19935;-96
2023/05/14 13:58:10;;;;;;;;;;;18.80;64.20;;;;;;4962123;29;19915;-96
2023/05/14 14:00:42;;;;;;;;;;;18.80;64.60;;;;;;4945936;29;19914;-96
2023/05/14 14:03:13;;;;;;;;;;;18.90;65.00;;;;;;4946245;29;19922;-96
2023/05/14 14:08:44;;;;;;;;;;;19.10;67.70;;;;;;5250848;23;19933;-96
2023/05/14 14:11:12;;;;;;;;;;;19.20;68.60;;;;;;4961991;29;19979;-96
2023/05/14 14:13:40;;;;;;;;;;;19.10;66.80;;;;;;4962246;29;19917;-96
2023/05/14 14:16:07;;;;;;;;;;;19.10;67.10;;;;;;4961564;29;19910;-96
2023/05/14 14:18:41;;;;;;;;;;;19.00;66.20;;;;;;4961992;29;19950;-96
2023/05/14 14:21:08;;;;;;;;;;;19.10;65.50;;;;;;4961150;29;19918;-96
2023/05/14 14:23:39;;;;;;;;;;;19.10;67.30;;;;;;4961920;29;19934;-96
2023/05/14 14:26:09;;;;;;;;;;;19.00;67.20;;;;;;4959745;29;19919;-96
2023/05/14 14:28:36;;;;;;;;;;;19.10;67.80;;;;;;4960273;29;19973;-96
2023/05/14 14:31:06;;;;;;;;;;;19.20;66.20;;;;;;4961239;29;19913;-96
2023/05/14 14:33:34;;;;;;;;;;;19.20;65.50;;;;;;4961997;29;19922;-96
2023/05/14 14:36:04;;;;;;;;;;;19.30;65.10;;;;;;4961014;29;19936;-96
2023/05/14 14:38:35;;;;;;;;;;;19.30;65.70;;;;;;4961043;29;19969;-96
2023/05/14 14:41:05;;;;;;;;;;;19.40;66.60;;;;;;4978358;29;19911;-96
2023/05/14 14:43:44;;;;;;;;;;;19.40;63.90;;;;;;4972659;29;19917;-96
2023/05/14 14:46:13;;;;;;;;;;;19.20;64.60;;;;;;4941534;29;19915;-96
2023/05/14 14:48:42;;;;;;;;;;;19.20;64.50;;;;;;4940994;29;19911;-96
2023/05/14 14:51:11;;;;;;;;;;;19.30;63.70;;;;;;4940249;29;19981;-96
2023/05/14 14:53:40;;;;;;;;;;;19.00;64.70;;;;;;4940234;29;19918;-96
2023/05/14 14:56:05;;;;;;;;;;;18.80;65.30;;;;;;4939824;29;19911;-96
2023/05/14 14:58:32;;;;;;;;;;;18.60;66.90;;;;;;4939367;29;19915;-96
2023/05/14 15:00:58;;;;;;;;;;;18.40;67.40;;;;;;4939373;29;19911;-96
2023/05/14 15:03:24;;;;;;;;;;;18.30;67.90;;;;;;4939601;29;19966;-96
2023/05/14 15:05:52;;;;;;;;;;;18.20;68.20;;;;;;4939518;29;19919;-96
2023/05/14 15:08:19;;;;;;;;;;;18.20;69.00;;;;;;4937652;29;19947;-96
2023/05/14 15:10:48;;;;;;;;;;;18.10;70.00;;;;;;4938578;29;19986;-96
2023/05/14 15:13:14;;;;;;;;;;;18.00;70.30;;;;;;4938063;29;20374;-96
2023/05/14 15:15:41;;;;;;;;;;;17.90;70.00;;;;;;4938622;29;20386;-96
2023/05/14 15:18:08;;;;;;;;;;;17.80;70.50;;;;;;4936757;29;19957;-96
2023/05/14 15:20:35;;;;;;;;;;;17.80;69.90;;;;;;4938657;29;19911;-96
2023/05/14 15:23:02;;;;;;;;;;;17.70;70.40;;;;;;4937733;29;19911;-96
2023/05/14 15:25:28;;;;;;;;;;;17.60;70.90;;;;;;4937878;29;19942;-96
2023/05/14 15:27:54;;;;;;;;;;;17.60;71.40;;;;;;4937458;29;19915;-96
2023/05/14 15:30:20;;;;;;;;;;;17.50;72.10;;;;;;4937900;29;19918;-96
2023/05/14 15:32:49;;;;;;;;;;;17.40;71.70;;;;;;4937462;29;19978;-96
2023/05/14 15:35:16;;;;;;;;;;;17.40;72.40;;;;;;4936730;29;19942;-96
2023/05/14 15:37:43;;;;;;;;;;;17.30;73.50;;;;;;4937056;29;19922;-96
2023/05/14 15:40:09;;;;;;;;;;;17.20;75.80;;;;;;4954196;29;19918;-96
2023/05/14 15:42:42;;;;;;;;;;;17.10;76.80;;;;;;4936194;29;19946;-96
2023/05/14 15:45:09;;;;;;;;;;;17.00;75.50;;;;;;4950906;29;19922;-96
2023/05/14 15:47:35;;;;;;;;;;;16.70;77.20;;;;;;4950150;29;19943;-96
2023/05/14 15:50:01;;;;;;;;;;;16.60;78.60;;;;;;4934216;29;19932;-96
2023/05/14 15:52:26;;;;;;;;;;;16.50;78.80;;;;;;4934085;29;19911;-96
2023/05/14 15:54:54;;;;;;;;;;;16.30;79.80;;;;;;4933270;29;19911;-96
2023/05/14 15:57:20;;;;;;;;;;;16.20;80.30;;;;;;4949865;29;19911;-96
2023/05/14 15:59:46;;;;;;;;;;;15.90;81.80;;;;;;4931621;29;19974;-96
2023/05/14 16:02:12;;;;;;;;;;;15.80;82.20;;;;;;4932509;29;20286;-96
2023/05/14 16:04:38;;;;;;;;;;;15.70;82.50;;;;;;4933093;29;20363;-96
2023/05/14 16:07:05;;;;;;;;;;;15.60;82.10;;;;;;4932156;29;19915;-96
2023/05/14 16:09:32;;;;;;;;;;;15.60;82.50;;;;;;4828915;29;3063037;-96
2023/05/14 16:11:58;;;;;;;;;;;15.60;83.50;;;;;;4934988;29;19931;-96
2023/05/14 16:14:24;;;;;;;;;;;15.60;83.50;;;;;;4934737;29;20440;-96
2023/05/14 16:16:50;;;;;;;;;;;15.70;82.80;;;;;;4935530;29;19915;-96
2023/05/14 16:19:16;;;;;;;;;;;15.80;82.50;;;;;;4935910;29;19911;-96
2023/05/14 16:21:42;;;;;;;;;;;15.90;83.40;;;;;;4951499;29;19911;-96
2023/05/14 16:24:08;;;;;;;;;;;15.90;83.00;;;;;;4936779;29;19911;-96
2023/05/14 16:26:34;;;;;;;;;;;16.00;82.60;;;;;;4936835;29;19914;-96
2023/05/14 16:29:00;;;;;;;;;;;16.00;84.40;;;;;;4938893;29;19935;-96
2023/05/14 16:31:26;;;;;;;;;;;16.00;82.70;;;;;;4940926;29;19911;-96
2023/05/14 16:33:53;;;;;;;;;;;16.10;82.80;;;;;;4958089;29;19911;-96
2023/05/14 16:36:18;;;;;;;;;;;16.10;82.90;;;;;;4941105;29;19945;-96
2023/05/14 16:38:47;;;;;;;;;;;16.10;82.40;;;;;;4940499;29;19911;-96
2023/05/14 16:41:13;;;;;;;;;;;16.10;81.90;;;;;;4940254;29;19914;-96
2023/05/14 16:43:42;;;;;;;;;;;16.10;81.90;;;;;;4939969;29;19918;-96
2023/05/14 16:46:10;;;;;;;;;;;16.00;81.70;;;;;;4940419;29;19921;-96
2023/05/14 16:48:39;;;;;;;;;;;16.00;82.30;;;;;;4940348;29;19970;-96
2023/05/14 16:51:06;;;;;;;;;;;16.00;82.60;;;;;;4940658;29;19911;-96
2023/05/14 16:53:33;;;;;;;;;;;15.90;82.90;;;;;;4940037;29;19922;-96
2023/05/14 16:55:59;;;;;;;;;;;15.80;83.10;;;;;;4939109;29;19911;-96
2023/05/14 16:58:26;;;;;;;;;;;15.80;83.00;;;;;;4937942;29;19954;-96
2023/05/14 17:00:52;;;;;;;;;;;15.70;83.70;;;;;;4937352;29;20371;-96
2023/05/14 17:03:18;;;;;;;;;;;15.50;84.60;;;;;;4955079;29;19917;-96
2023/05/14 17:05:46;;;;;;;;;;;15.40;84.50;;;;;;4937330;29;19954;-96
2023/05/14 17:08:13;;;;;;;;;;;15.30;84.70;;;;;;4937537;29;19923;-96
2023/05/14 17:10:39;;;;;;;;;;;15.30;84.00;;;;;;4938358;29;19957;-96
2023/05/14 17:13:05;;;;;;;;;;;15.30;83.90;;;;;;4938727;29;19917;-96
2023/05/14 17:15:31;;;;;;;;;;;15.30;83.30;;;;;;4938700;29;19911;-96
2023/05/14 17:18:00;;;;;;;;;;;15.30;83.00;;;;;;4939391;29;19989;-96
2023/05/14 17:20:29;;;;;;;;;;;15.20;82.80;;;;;;4939417;29;19917;-96
2023/05/14 17:22:55;;;;;;;;;;;15.30;82.30;;;;;;4938850;29;19915;-96
2023/05/14 17:25:22;;;;;;;;;;;15.30;82.20;;;;;;4939700;29;19969;-96
2023/05/14 17:27:48;;;;;;;;;;;15.30;82.00;;;;;;4940099;29;19975;-96
2023/05/14 17:30:15;;;;;;;;;;;15.30;82.00;;;;;;4939420;29;19917;-96
2023/05/14 17:32:41;;;;;;;;;;;15.30;82.30;;;;;;4939377;29;19963;-96
2023/05/14 17:35:08;;;;;;;;;;;15.30;82.80;;;;;;4938860;29;19911;-96
2023/05/14 17:37:36;;;;;;;;;;;15.20;83.10;;;;;;4938507;29;19915;-96
2023/05/14 17:40:05;;;;;;;;;;;15.10;83.90;;;;;;4937974;29;19915;-96
2023/05/14 17:42:31;;;;;;;;;;;15.10;84.30;;;;;;4938727;29;19914;-96
2023/05/14 17:44:57;;;;;;;;;;;15.00;84.40;;;;;;4938510;29;19934;-96
2023/05/14 17:47:26;;;;;;;;;;;15.00;84.70;;;;;;4937811;29;19915;-96
2023/05/14 17:49:52;;;;;;;;;;;14.90;85.20;;;;;;4938645;29;19922;-96
2023/05/14 17:52:19;;;;;;;;;;;14.90;85.20;;;;;;4938211;29;19910;-96
2023/05/14 17:54:48;;;;;;;;;;;14.80;85.20;;;;;;4938961;29;19918;-96
2023/05/14 17:57:14;;;;;;;;;;;14.80;85.10;;;;;;4955924;29;19935;-96
2023/05/14 17:59:40;;;;;;;;;;;14.80;85.00;;;;;;4939241;29;19971;-96
2023/05/14 18:02:06;;;;;;;;;;;14.80;85.10;;;;;;4939752;29;19915;-96
2023/05/14 18:04:32;;;;;;;;;;;14.80;85.30;;;;;;4939974;29;19911;-96
2023/05/14 18:07:00;;;;;;;;;;;14.80;85.20;;;;;;4939307;29;19915;-96
2023/05/14 18:09:26;;;;;;;;;;;14.80;85.50;;;;;;4939275;29;19973;-96
2023/05/14 18:11:53;;;;;;;;;;;14.90;85.60;;;;;;4939976;29;19918;-96
2023/05/14 18:14:20;;;;;;;;;;;14.90;85.90;;;;;;4940055;29;20275;-96
2023/05/14 18:16:46;;;;;;;;;;;14.80;86.40;;;;;;4939703;29;19911;-96
2023/05/14 18:19:12;;;;;;;;;;;14.90;86.60;;;;;;4940347;29;19915;-96
2023/05/14 18:21:46;;;;;;;;;;;14.80;86.40;;;;;;4940013;29;19935;-96